Time;durP1;ratioP1;P1;durP2;ratioP2;P2;SDS_P1;SDS_P2;PMS_P1;PMS_P2;Temp;Humidity;BMP_temperature;BMP_pressure;BME280_temperature;BME280_humidity;BME280_pressure;Samples;Min_cycle;Max_cycle;Signal;HPM_P1;HPM_P2
2022/09/19 00:00:38;;;;;;;;;;;16.90;99.00;;;;;;5039323;28;19912;-8
2022/09/19 00:03:04;;;;;;;;;;;16.90;99.00;;;;;;5037853;28;19919;-10
2022/09/19 00:05:29;;;;;;;;;;;16.90;99.00;;;;;;5054737;28;19963;-9
2022/09/19 00:07:58;;;;;;;;;;;16.90;99.00;;;;;;5053621;28;19909;-10
2022/09/19 00:10:23;;;;;;;;;;;16.90;99.00;;;;;;5037296;28;19924;-10
2022/09/19 00:12:49;;;;;;;;;;;16.90;99.00;;;;;;5038335;28;19909;-11
2022/09/19 00:15:14;;;;;;;;;;;16.80;98.90;;;;;;5038184;28;19908;-8
2022/09/19 00:17:40;;;;;;;;;;;16.90;99.00;;;;;;5038646;28;20163;-10
2022/09/19 00:20:06;;;;;;;;;;;16.80;98.90;;;;;;5037927;28;19916;-9
2022/09/19 00:22:32;;;;;;;;;;;16.80;98.90;;;;;;5054824;28;20157;-8
2022/09/19 00:25:01;;;;;;;;;;;16.80;98.90;;;;;;5056172;28;19948;-8
2022/09/19 00:27:28;;;;;;;;;;;16.80;98.90;;;;;;5038747;28;19998;-10
2022/09/19 00:29:54;;;;;;;;;;;16.80;98.90;;;;;;5056739;28;19908;-7
2022/09/19 00:32:21;;;;;;;;;;;16.80;98.90;;;;;;5055827;28;20003;-9
2022/09/19 00:34:54;;;;;;;;;;;16.80;98.80;;;;;;5039580;28;19919;-9
2022/09/19 00:37:20;;;;;;;;;;;16.80;98.80;;;;;;5056227;28;19927;-9
2022/09/19 00:39:46;;;;;;;;;;;16.80;98.80;;;;;;5038483;28;19951;-9
2022/09/19 00:42:16;;;;;;;;;;;16.80;98.80;;;;;;5039210;28;19944;-10
2022/09/19 00:44:41;;;;;;;;;;;16.80;98.80;;;;;;5056338;28;19908;-9
2022/09/19 00:47:10;;;;;;;;;;;16.80;98.80;;;;;;5037711;28;20042;-8
2022/09/19 00:49:38;;;;;;;;;;;16.80;98.90;;;;;;5052185;28;19920;-10
2022/09/19 00:52:05;;;;;;;;;;;16.80;98.80;;;;;;5034901;28;19909;-9
2022/09/19 00:54:33;;;;;;;;;;;16.80;98.80;;;;;;5034824;28;19970;-9
2022/09/19 00:57:01;;;;;;;;;;;16.80;99.00;;;;;;5035392;28;19967;-8
2022/09/19 00:59:29;;;;;;;;;;;16.80;98.80;;;;;;5051445;28;19999;-8
2022/09/19 01:01:55;;;;;;;;;;;16.80;98.80;;;;;;5053622;28;20011;-9
2022/09/19 01:04:25;;;;;;;;;;;16.80;98.80;;;;;;5054306;28;20217;-10
2022/09/19 01:07:03;;;;;;;;;;;16.80;98.80;;;;;;5054214;28;20003;-8
2022/09/19 01:09:38;;;;;;;;;;;16.80;98.80;;;;;;5037202;28;19939;-9
2022/09/19 01:12:23;;;;;;;;;;;16.80;98.70;;;;;;5053663;28;20227;-10
2022/09/19 01:14:58;;;;;;;;;;;16.80;99.00;;;;;;5054543;28;19920;-8
2022/09/19 01:17:30;;;;;;;;;;;16.80;98.70;;;;;;5054218;28;19967;-9
2022/09/19 01:19:58;;;;;;;;;;;16.80;98.70;;;;;;5054157;28;19924;-7
2022/09/19 01:22:43;;;;;;;;;;;16.80;98.70;;;;;;5036948;28;20355;-9
2022/09/19 01:25:18;;;;;;;;;;;16.80;98.70;;;;;;5036185;28;19912;-10
2022/09/19 01:28:01;;;;;;;;;;;16.80;98.70;;;;;;5038565;28;19919;-9
2022/09/19 01:30:27;;;;;;;;;;;16.80;98.70;;;;;;5035429;28;20275;-8
2022/09/19 01:32:56;;;;;;;;;;;16.80;98.60;;;;;;5037899;28;19917;-9
2022/09/19 01:35:27;;;;;;;;;;;16.80;98.60;;;;;;5037780;28;19909;-8
2022/09/19 01:38:03;;;;;;;;;;;16.80;98.60;;;;;;5055458;28;20013;-8
2022/09/19 01:40:29;;;;;;;;;;;16.80;98.60;;;;;;5055750;28;19917;-10
2022/09/19 01:42:55;;;;;;;;;;;16.80;98.60;;;;;;5056107;28;19916;-9
2022/09/19 01:45:24;;;;;;;;;;;16.80;98.60;;;;;;5058629;28;20115;-10
2022/09/19 01:48:01;;;;;;;;;;;16.80;98.60;;;;;;5061488;28;19920;-8
2022/09/19 01:50:48;;;;;;;;;;;16.80;98.60;;;;;;5060983;28;20282;-10
2022/09/19 01:53:20;;;;;;;;;;;16.80;98.60;;;;;;5060903;28;19999;-10
2022/09/19 01:55:49;;;;;;;;;;;16.80;98.60;;;;;;5060991;28;19909;-9
2022/09/19 01:58:15;;;;;;;;;;;16.70;98.60;;;;;;5061237;28;20007;-8
2022/09/19 02:00:49;;;;;;;;;;;16.70;98.60;;;;;;5060644;28;19966;-9
2022/09/19 02:03:27;;;;;;;;;;;16.70;98.60;;;;;;5060972;28;19917;-10
2022/09/19 02:06:11;;;;;;;;;;;16.70;98.60;;;;;;5061566;28;20263;-9
2022/09/19 02:08:50;;;;;;;;;;;16.70;98.60;;;;;;5061377;28;19947;-10
2022/09/19 02:11:21;;;;;;;;;;;16.70;98.60;;;;;;5061186;28;19915;-10
2022/09/19 02:13:51;;;;;;;;;;;16.70;98.60;;;;;;5061378;28;19939;-9
2022/09/19 02:16:25;;;;;;;;;;;16.70;98.60;;;;;;5060395;28;19917;-8
2022/09/19 02:18:57;;;;;;;;;;;16.70;98.60;;;;;;5042710;28;20224;-9
2022/09/19 02:21:38;;;;;;;;;;;16.70;98.60;;;;;;5041493;28;19996;-8
2022/09/19 02:24:13;;;;;;;;;;;16.70;98.60;;;;;;5059736;28;19908;-10
2022/09/19 02:26:40;;;;;;;;;;;16.70;98.60;;;;;;5059958;28;20304;-8
2022/09/19 02:29:08;;;;;;;;;;;16.70;98.60;;;;;;5059225;28;19913;-9
2022/09/19 02:31:37;;;;;;;;;;;16.70;98.60;;;;;;5059466;28;19909;-8
2022/09/19 02:34:07;;;;;;;;;;;16.70;98.60;;;;;;5042467;28;19909;-9
2022/09/19 02:36:39;;;;;;;;;;;16.70;98.70;;;;;;5041816;28;20307;-10
2022/09/19 02:39:20;;;;;;;;;;;16.70;98.60;;;;;;5040759;28;20217;-9
2022/09/19 02:41:52;;;;;;;;;;;16.70;98.70;;;;;;5058135;28;19909;-10
2022/09/19 02:44:24;;;;;;;;;;;16.70;98.70;;;;;;5041858;28;19913;-9
2022/09/19 02:46:57;;;;;;;;;;;16.70;98.70;;;;;;5041748;28;20163;-9
2022/09/19 02:49:38;;;;;;;;;;;16.70;98.70;;;;;;5058200;28;19913;-9
2022/09/19 02:52:19;;;;;;;;;;;16.60;98.60;;;;;;5058226;28;19908;-7
2022/09/19 02:54:48;;;;;;;;;;;16.70;98.70;;;;;;5052511;28;20306;-9
2022/09/19 02:57:16;;;;;;;;;;;16.60;98.60;;;;;;5056349;28;20198;-9
2022/09/19 02:59:43;;;;;;;;;;;16.60;98.60;;;;;;5055354;28;19921;-9
2022/09/19 03:02:24;;;;;;;;;;;16.60;98.60;;;;;;5055086;28;20171;-9
2022/09/19 03:04:58;;;;;;;;;;;16.60;98.70;;;;;;5056111;28;19938;-10
2022/09/19 03:07:29;;;;;;;;;;;16.60;98.70;;;;;;5038927;28;19909;-9
2022/09/19 03:10:03;;;;;;;;;;;16.60;98.70;;;;;;5056509;28;20365;-10
2022/09/19 03:12:50;;;;;;;;;;;16.60;98.70;;;;;;5055229;28;20275;-9
2022/09/19 03:15:22;;;;;;;;;;;16.60;98.70;;;;;;5037839;28;19962;-10
2022/09/19 03:17:49;;;;;;;;;;;16.60;98.70;;;;;;5038639;28;20004;-9
2022/09/19 03:20:16;;;;;;;;;;;16.60;98.70;;;;;;5038219;28;19921;-10
2022/09/19 03:22:41;;;;;;;;;;;16.60;98.70;;;;;;5037852;28;19909;-9
2022/09/19 03:25:08;;;;;;;;;;;16.60;98.70;;;;;;5056751;28;20241;-9
2022/09/19 03:27:36;;;;;;;;;;;16.60;98.70;;;;;;5038566;28;19909;-8
2022/09/19 03:30:07;;;;;;;;;;;16.60;98.70;;;;;;5038802;28;19971;-8
2022/09/19 03:32:34;;;;;;;;;;;16.60;98.90;;;;;;5037759;28;19920;-9
2022/09/19 03:34:59;;;;;;;;;;;16.60;98.70;;;;;;5055898;28;19916;-8
2022/09/19 03:37:25;;;;;;;;;;;16.60;98.70;;;;;;5037387;28;19970;-8
2022/09/19 03:39:51;;;;;;;;;;;16.60;98.70;;;;;;5039012;28;19913;-9
2022/09/19 03:42:19;;;;;;;;;;;16.60;98.70;;;;;;5040089;28;20016;-10
2022/09/19 03:44:44;;;;;;;;;;;16.60;98.70;;;;;;5057045;28;19913;-9
2022/09/19 03:47:10;;;;;;;;;;;16.50;98.70;;;;;;5056590;28;19978;-8
2022/09/19 03:49:40;;;;;;;;;;;16.50;98.70;;;;;;5056374;28;19959;-8
2022/09/19 03:52:08;;;;;;;;;;;16.50;98.70;;;;;;5056741;28;19991;-7
2022/09/19 03:54:36;;;;;;;;;;;16.50;98.70;;;;;;5056791;28;20259;-9
2022/09/19 03:57:02;;;;;;;;;;;16.60;98.80;;;;;;5055662;28;20015;-8
2022/09/19 03:59:28;;;;;;;;;;;16.60;98.70;;;;;;5055197;28;20027;-8
2022/09/19 04:01:54;;;;;;;;;;;16.60;98.60;;;;;;5053987;28;19909;-8
2022/09/19 04:04:23;;;;;;;;;;;16.60;98.60;;;;;;5054266;28;19948;-8
2022/09/19 04:06:51;;;;;;;;;;;16.70;98.60;;;;;;5052676;28;20015;-9
2022/09/19 04:09:16;;;;;;;;;;;16.70;98.50;;;;;;5051250;28;20306;-8
2022/09/19 04:11:42;;;;;;;;;;;16.70;98.40;;;;;;5052210;28;20460;-9
2022/09/19 04:14:10;;;;;;;;;;;16.70;98.40;;;;;;5054612;28;20015;-10
2022/09/19 04:16:36;;;;;;;;;;;16.70;98.30;;;;;;5053713;28;19920;-9
2022/09/19 04:19:01;;;;;;;;;;;16.70;98.20;;;;;;5032540;28;19932;-9
2022/09/19 04:21:30;;;;;;;;;;;16.80;98.20;;;;;;5034534;28;20298;-10
2022/09/19 04:23:57;;;;;;;;;;;16.80;98.20;;;;;;5053722;28;19975;-10
2022/09/19 04:26:22;;;;;;;;;;;16.80;98.10;;;;;;5036545;28;19909;-12
2022/09/19 04:28:51;;;;;;;;;;;16.80;98.10;;;;;;5056721;28;19909;-11
2022/09/19 04:31:17;;;;;;;;;;;16.80;98.00;;;;;;5041037;28;20144;-10
2022/09/19 04:33:43;;;;;;;;;;;16.80;98.00;;;;;;5053335;28;19909;-10
2022/09/19 04:36:08;;;;;;;;;;;16.80;97.90;;;;;;5033812;28;19908;-9
2022/09/19 04:38:34;;;;;;;;;;;16.80;97.90;;;;;;5032850;28;20007;-8
2022/09/19 04:41:00;;;;;;;;;;;16.80;97.90;;;;;;5050407;28;20036;-10
2022/09/19 04:43:29;;;;;;;;;;;16.80;97.90;;;;;;5049907;28;20287;-8
2022/09/19 04:45:59;;;;;;;;;;;16.80;97.90;;;;;;5048886;28;19909;-10
2022/09/19 04:48:25;;;;;;;;;;;16.80;97.90;;;;;;5050073;28;19909;-8
2022/09/19 04:50:57;;;;;;;;;;;16.80;97.90;;;;;;5049710;28;20244;-9
2022/09/19 04:53:24;;;;;;;;;;;16.80;97.90;;;;;;5033137;28;19943;-10
2022/09/19 04:55:51;;;;;;;;;;;16.80;98.00;;;;;;5034533;28;19920;-9
2022/09/19 04:58:16;;;;;;;;;;;16.80;97.90;;;;;;5051463;28;19962;-8
2022/09/19 05:00:53;;;;;;;;;;;16.80;98.00;;;;;;5050361;28;20053;-10
2022/09/19 05:03:20;;;;;;;;;;;16.70;98.00;;;;;;5049306;28;19915;-8
2022/09/19 05:05:53;;;;;;;;;;;16.70;98.20;;;;;;5035116;28;19908;-8
2022/09/19 05:08:20;;;;;;;;;;;16.70;98.00;;;;;;5052197;28;19909;-8
2022/09/19 05:10:46;;;;;;;;;;;16.70;98.00;;;;;;5034338;28;20236;-9
2022/09/19 05:13:12;;;;;;;;;;;16.70;98.00;;;;;;5049798;28;19908;-9
2022/09/19 05:15:41;;;;;;;;;;;16.70;98.00;;;;;;5032797;28;19999;-9
2022/09/19 05:18:09;;;;;;;;;;;16.70;98.00;;;;;;5032561;28;19909;-8
2022/09/19 05:20:35;;;;;;;;;;;16.70;98.00;;;;;;5053051;28;19919;-10
2022/09/19 05:23:00;;;;;;;;;;;16.70;98.00;;;;;;5036104;28;20190;-9
2022/09/19 05:25:27;;;;;;;;;;;16.70;98.00;;;;;;5050506;28;19919;-8
2022/09/19 05:27:54;;;;;;;;;;;16.70;98.10;;;;;;5034001;28;19917;-8
2022/09/19 05:30:22;;;;;;;;;;;16.70;98.10;;;;;;5051639;28;20478;-9
2022/09/19 05:32:48;;;;;;;;;;;16.70;98.10;;;;;;5052227;28;19969;-9
2022/09/19 05:35:14;;;;;;;;;;;16.70;98.10;;;;;;5032784;28;20006;-10
2022/09/19 05:37:40;;;;;;;;;;;16.70;98.10;;;;;;5051843;28;20177;-10
2022/09/19 05:40:06;;;;;;;;;;;16.70;98.10;;;;;;5034203;28;19912;-9
2022/09/19 05:42:32;;;;;;;;;;;16.70;98.10;;;;;;5052755;28;20325;-10
2022/09/19 05:45:00;;;;;;;;;;;16.70;98.10;;;;;;5052249;28;20259;-10
2022/09/19 05:47:26;;;;;;;;;;;16.70;98.10;;;;;;5048803;28;19927;-8
2022/09/19 05:49:51;;;;;;;;;;;16.70;98.00;;;;;;5049495;28;20013;-10
2022/09/19 05:55:03;;;;;;;;;;;16.80;97.90;;;;;;5016869;28;20275;-7
2022/09/19 05:57:31;;;;;;;;;;;16.80;97.80;;;;;;5047515;28;19935;-8
2022/09/19 05:59:56;;;;;;;;;;;16.80;97.80;;;;;;5049029;28;19960;-10
2022/09/19 06:02:22;;;;;;;;;;;16.90;97.70;;;;;;5048043;28;19967;-10
2022/09/19 06:04:47;;;;;;;;;;;16.90;97.50;;;;;;5047008;28;20267;-11
2022/09/19 06:07:13;;;;;;;;;;;17.30;96.90;;;;;;5047471;28;19919;-8
2022/09/19 06:09:40;;;;;;;;;;;17.50;96.20;;;;;;5047817;28;19920;-9
2022/09/19 06:12:05;;;;;;;;;;;17.60;95.80;;;;;;5031106;28;19909;-9
2022/09/19 06:14:31;;;;;;;;;;;17.60;95.50;;;;;;5049811;28;19909;-10
2022/09/19 06:16:59;;;;;;;;;;;17.50;95.70;;;;;;5049258;28;19908;-9
2022/09/19 06:19:28;;;;;;;;;;;17.40;96.30;;;;;;5048666;28;20262;-9
2022/09/19 06:21:57;;;;;;;;;;;17.40;96.20;;;;;;5049347;28;19908;-7
2022/09/19 06:24:25;;;;;;;;;;;17.30;96.50;;;;;;5032290;28;20278;-9
2022/09/19 06:26:54;;;;;;;;;;;17.30;96.70;;;;;;5049200;28;19908;-9
2022/09/19 06:29:22;;;;;;;;;;;17.30;96.90;;;;;;5048114;28;19962;-9
2022/09/19 06:31:51;;;;;;;;;;;17.30;96.90;;;;;;5030215;28;19944;-8
2022/09/19 06:34:21;;;;;;;;;;;17.30;97.10;;;;;;5031434;28;20415;-11
2022/09/19 06:36:51;;;;;;;;;;;17.20;97.10;;;;;;5031368;28;19913;-10
2022/09/19 06:39:17;;;;;;;;;;;17.20;97.10;;;;;;5032631;28;20205;-8
2022/09/19 06:41:47;;;;;;;;;;;17.30;97.20;;;;;;5051928;28;19908;-9
2022/09/19 06:44:16;;;;;;;;;;;17.30;97.20;;;;;;5051194;28;19944;-10
2022/09/19 06:46:42;;;;;;;;;;;17.30;97.20;;;;;;5032647;28;19919;-9
2022/09/19 06:49:07;;;;;;;;;;;17.50;97.10;;;;;;5049484;28;19908;-9
2022/09/19 06:51:33;;;;;;;;;;;17.60;96.70;;;;;;5032791;28;19909;-9
2022/09/19 06:53:59;;;;;;;;;;;17.60;96.60;;;;;;5049423;28;19909;-9
2022/09/19 06:56:25;;;;;;;;;;;17.60;96.60;;;;;;5032670;28;20048;-8
2022/09/19 06:58:50;;;;;;;;;;;17.60;96.70;;;;;;5050665;28;19962;-10
2022/09/19 07:01:19;;;;;;;;;;;17.70;96.70;;;;;;5033026;28;19917;-9
2022/09/19 07:03:44;;;;;;;;;;;18.50;95.70;;;;;;5032983;28;19931;-9
2022/09/19 07:06:10;;;;;;;;;;;19.20;93.80;;;;;;5030963;28;19924;-9
2022/09/19 07:08:37;;;;;;;;;;;20.10;90.90;;;;;;5048878;28;19931;-8
2022/09/19 07:11:04;;;;;;;;;;;20.40;89.80;;;;;;5047804;28;20320;-8
2022/09/19 07:13:33;;;;;;;;;;;20.20;88.50;;;;;;5029812;28;20069;-11
2022/09/19 07:16:02;;;;;;;;;;;19.90;90.40;;;;;;5048806;28;20278;-9
2022/09/19 07:18:28;;;;;;;;;;;19.60;90.80;;;;;;5047920;28;19917;-10
2022/09/19 07:20:53;;;;;;;;;;;19.50;91.30;;;;;;5030111;28;19913;-10
2022/09/19 07:23:19;;;;;;;;;;;19.60;91.20;;;;;;5029835;28;20014;-10
2022/09/19 07:25:48;;;;;;;;;;;19.50;91.50;;;;;;5046869;28;20284;-9
2022/09/19 07:28:20;;;;;;;;;;;19.30;91.80;;;;;;5046299;28;20338;-10
2022/09/19 07:30:47;;;;;;;;;;;19.10;92.40;;;;;;5047470;28;19908;-12
2022/09/19 07:33:13;;;;;;;;;;;18.90;92.90;;;;;;5030037;28;19908;-10
2022/09/19 07:35:41;;;;;;;;;;;18.70;93.40;;;;;;5048407;28;19952;-10
2022/09/19 07:38:17;;;;;;;;;;;18.60;93.80;;;;;;5032531;28;20262;-10
2022/09/19 07:40:42;;;;;;;;;;;18.50;94.10;;;;;;5031422;28;19913;-9
2022/09/19 07:43:14;;;;;;;;;;;18.40;94.30;;;;;;5049877;28;19986;-9
2022/09/19 07:45:44;;;;;;;;;;;18.30;94.50;;;;;;5032410;28;19947;-9
2022/09/19 07:48:10;;;;;;;;;;;18.30;94.60;;;;;;5048906;28;20191;-10
2022/09/19 07:50:36;;;;;;;;;;;18.40;94.60;;;;;;5048266;28;19908;-8
2022/09/19 07:53:15;;;;;;;;;;;18.40;94.60;;;;;;5049875;28;19919;-9
2022/09/19 07:55:41;;;;;;;;;;;18.40;94.40;;;;;;5050754;28;20355;-9
2022/09/19 07:58:08;;;;;;;;;;;18.60;94.30;;;;;;5032946;28;20057;-9
2022/09/19 08:00:37;;;;;;;;;;;18.70;94.00;;;;;;5050214;28;19913;-10
2022/09/19 08:03:13;;;;;;;;;;;18.80;93.80;;;;;;5049498;28;20263;-9
2022/09/19 08:05:43;;;;;;;;;;;18.90;93.60;;;;;;5032142;28;19920;-10
2022/09/19 08:08:10;;;;;;;;;;;18.90;93.30;;;;;;5036579;28;20009;-11
2022/09/19 08:10:39;;;;;;;;;;;18.90;93.40;;;;;;5074331;28;20409;-9
2022/09/19 08:13:06;;;;;;;;;;;18.80;93.50;;;;;;5058736;28;19909;-9
2022/09/19 08:15:35;;;;;;;;;;;18.70;93.60;;;;;;5066244;28;19908;-10
2022/09/19 08:18:03;;;;;;;;;;;18.70;93.90;;;;;;5044023;28;19942;-10
2022/09/19 08:20:32;;;;;;;;;;;18.70;94.00;;;;;;5037891;28;19921;-10
2022/09/19 08:22:58;;;;;;;;;;;18.70;94.00;;;;;;5055915;28;20205;-10
2022/09/19 08:25:27;;;;;;;;;;;18.80;94.00;;;;;;5071492;28;19915;-10
2022/09/19 08:27:56;;;;;;;;;;;19.90;92.50;;;;;;5075316;28;19909;-10
2022/09/19 08:30:29;;;;;;;;;;;21.20;86.90;;;;;;5047906;28;19934;-11
2022/09/19 08:32:56;;;;;;;;;;;22.70;77.30;;;;;;5075479;28;19939;-9
2022/09/19 08:35:25;;;;;;;;;;;23.80;68.10;;;;;;5075007;28;19932;-8
2022/09/19 08:37:55;;;;;;;;;;;24.80;62.40;;;;;;5073840;28;20051;-10
2022/09/19 08:40:30;;;;;;;;;;;25.70;58.90;;;;;;5074917;28;19916;-10
2022/09/19 08:43:14;;;;;;;;;;;26.30;57.20;;;;;;5075388;28;19940;-11
2022/09/19 08:45:44;;;;;;;;;;;26.30;56.30;;;;;;5066671;28;19909;-12
2022/09/19 08:48:19;;;;;;;;;;;26.50;55.60;;;;;;5054322;28;19913;-10
2022/09/19 08:50:47;;;;;;;;;;;26.70;54.90;;;;;;5053662;28;19943;-12
2022/09/19 08:53:22;;;;;;;;;;;27.20;54.10;;;;;;5036549;28;19974;-10
2022/09/19 08:55:50;;;;;;;;;;;27.50;53.40;;;;;;5054163;28;19915;-12
2022/09/19 08:58:18;;;;;;;;;;;27.80;53.00;;;;;;5054906;28;19909;-11
2022/09/19 09:00:45;;;;;;;;;;;28.00;52.50;;;;;;5054389;28;19912;-11
2022/09/19 09:03:14;;;;;;;;;;;28.10;52.20;;;;;;5037489;28;19912;-9
2022/09/19 09:06:01;;;;;;;;;;;27.80;51.90;;;;;;5054724;28;19951;-12
2022/09/19 09:08:30;;;;;;;;;;;27.30;52.30;;;;;;5053356;28;19995;-10
2022/09/19 09:11:00;;;;;;;;;;;27.70;52.50;;;;;;5053631;28;20526;-10
2022/09/19 09:13:35;;;;;;;;;;;27.90;51.90;;;;;;5054266;28;19909;-10
2022/09/19 09:16:07;;;;;;;;;;;28.40;51.60;;;;;;5053606;28;19913;-11
2022/09/19 09:18:44;;;;;;;;;;;28.50;50.90;;;;;;5054015;28;20274;-11
2022/09/19 09:21:27;;;;;;;;;;;28.80;50.90;;;;;;5052927;28;19924;-12
2022/09/19 09:24:05;;;;;;;;;;;28.90;50.50;;;;;;5053839;28;19909;-11
2022/09/19 09:26:45;;;;;;;;;;;28.90;50.10;;;;;;5053252;28;20020;-13
2022/09/19 09:29:21;;;;;;;;;;;29.20;50.00;;;;;;5053527;28;19971;-11
2022/09/19 09:31:52;;;;;;;;;;;29.40;49.70;;;;;;5054218;28;19909;-11
2022/09/19 09:34:27;;;;;;;;;;;29.60;49.40;;;;;;5054363;28;19913;-10
2022/09/19 09:36:59;;;;;;;;;;;29.10;48.90;;;;;;5037956;28;19913;-11
2022/09/19 09:39:32;;;;;;;;;;;28.40;49.50;;;;;;5055686;28;20007;-11
2022/09/19 09:42:00;;;;;;;;;;;27.70;49.90;;;;;;5038240;28;19920;-10
2022/09/19 09:44:30;;;;;;;;;;;26.10;51.40;;;;;;5036850;28;19959;-12
2022/09/19 09:47:02;;;;;;;;;;;25.60;52.20;;;;;;5053983;28;19974;-12
2022/09/19 09:49:29;;;;;;;;;;;24.50;53.70;;;;;;5054238;28;19913;-11
2022/09/19 09:51:54;;;;;;;;;;;23.60;55.50;;;;;;5053034;28;20259;-10
2022/09/19 09:57:28;;;;;;;;;;;23.90;56.10;;;;;;5060360;28;20160;-11
2022/09/19 10:05:42;;;;;;;;;;;23.20;59.00;;;;;;5066731;28;20385;-12
2022/09/19 10:08:20;;;;;;;;;;;23.00;59.60;;;;;;5043406;28;20395;-12
2022/09/19 10:10:47;;;;;;;;;;;22.60;62.50;;;;;;5069120;28;20192;-10
2022/09/19 10:13:28;;;;;;;;;;;22.20;65.20;;;;;;5076664;28;19912;-11
2022/09/19 10:16:02;;;;;;;;;;;21.90;67.50;;;;;;5058795;28;19908;-9
2022/09/19 10:18:30;;;;;;;;;;;21.70;70.00;;;;;;5078158;28;19920;-10
2022/09/19 10:20:56;;;;;;;;;;;21.60;71.80;;;;;;5077190;28;20054;-10
2022/09/19 10:23:25;;;;;;;;;;;21.50;72.90;;;;;;5076429;28;20002;-11
2022/09/19 10:25:59;;;;;;;;;;;21.50;73.80;;;;;;5072496;28;20191;-11
2022/09/19 10:28:31;;;;;;;;;;;21.40;74.80;;;;;;5077017;28;19908;-12
2022/09/19 10:30:58;;;;;;;;;;;21.20;76.50;;;;;;5059336;28;19915;-10
2022/09/19 10:33:43;;;;;;;;;;;21.00;77.80;;;;;;5052805;28;19936;-9
2022/09/19 10:36:35;;;;;;;;;;;20.90;79.00;;;;;;5057774;28;20050;-10
2022/09/19 10:39:19;;;;;;;;;;;20.80;80.70;;;;;;5060401;28;20186;-9
2022/09/19 10:41:45;;;;;;;;;;;20.70;81.90;;;;;;5067144;28;20325;-9
2022/09/19 10:44:18;;;;;;;;;;;20.70;82.70;;;;;;5069827;28;19909;-10
2022/09/19 10:46:49;;;;;;;;;;;20.70;82.80;;;;;;5067395;28;19909;-9
2022/09/19 10:49:18;;;;;;;;;;;20.70;82.60;;;;;;5046650;28;20007;-10
2022/09/19 10:51:51;;;;;;;;;;;20.80;82.80;;;;;;5047361;28;19912;-9
2022/09/19 10:54:36;;;;;;;;;;;20.80;82.90;;;;;;5050654;28;19908;-9
2022/09/19 10:57:05;;;;;;;;;;;20.80;82.80;;;;;;5061806;28;19913;-9
2022/09/19 10:59:38;;;;;;;;;;;20.90;82.90;;;;;;5069352;28;19960;-11
2022/09/19 11:02:04;;;;;;;;;;;20.90;83.10;;;;;;5045004;28;20434;-9
2022/09/19 11:04:29;;;;;;;;;;;20.90;83.70;;;;;;5064552;28;19948;-9
2022/09/19 11:06:59;;;;;;;;;;;20.80;83.60;;;;;;5060640;28;20096;-9
2022/09/19 11:09:32;;;;;;;;;;;20.80;83.90;;;;;;5046118;28;20140;-11
2022/09/19 11:12:15;;;;;;;;;;;20.80;84.00;;;;;;5056873;28;20121;-10
2022/09/19 11:14:41;;;;;;;;;;;20.80;84.30;;;;;;5048081;28;19913;-10
2022/09/19 11:17:22;;;;;;;;;;;20.80;84.60;;;;;;5045341;28;19908;-10
2022/09/19 11:20:06;;;;;;;;;;;20.80;84.80;;;;;;5029121;28;20003;-10
2022/09/19 11:22:38;;;;;;;;;;;20.90;84.40;;;;;;5028465;28;19917;-10
2022/09/19 11:25:14;;;;;;;;;;;20.90;84.50;;;;;;5030440;28;19909;-10
2022/09/19 11:28:10;;;;;;;;;;;20.90;84.50;;;;;;5047820;28;19935;-10
2022/09/19 11:30:39;;;;;;;;;;;20.80;84.80;;;;;;5013158;28;20107;-10
2022/09/19 11:33:24;;;;;;;;;;;20.80;85.10;;;;;;5029165;28;19909;-10
2022/09/19 11:36:07;;;;;;;;;;;20.80;85.50;;;;;;5047670;28;20003;-10
2022/09/19 11:38:39;;;;;;;;;;;20.80;85.40;;;;;;5047573;28;19971;-10
2022/09/19 11:41:06;;;;;;;;;;;20.80;85.20;;;;;;5028950;28;20494;-10
2022/09/19 11:43:34;;;;;;;;;;;20.90;85.10;;;;;;5048255;28;19908;-10
2022/09/19 11:46:01;;;;;;;;;;;20.80;85.50;;;;;;5030474;28;20168;-9
2022/09/19 11:48:42;;;;;;;;;;;20.80;85.40;;;;;;5046832;28;19919;-10
2022/09/19 11:51:11;;;;;;;;;;;20.80;85.50;;;;;;5046205;28;20132;-10
2022/09/19 11:53:42;;;;;;;;;;;20.80;85.80;;;;;;5027172;28;19928;-9
2022/09/19 11:56:20;;;;;;;;;;;20.70;85.80;;;;;;5046884;28;19913;-10
2022/09/19 11:58:54;;;;;;;;;;;20.70;85.70;;;;;;5047017;28;19971;-10
2022/09/19 12:01:21;;;;;;;;;;;20.70;85.90;;;;;;5027676;28;20199;-9
2022/09/19 12:04:05;;;;;;;;;;;20.80;86.20;;;;;;5047779;28;19940;-9
2022/09/19 12:06:40;;;;;;;;;;;20.80;86.00;;;;;;5046627;28;20262;-10
2022/09/19 12:09:08;;;;;;;;;;;20.80;86.40;;;;;;5048554;28;19999;-9
2022/09/19 12:11:49;;;;;;;;;;;20.80;86.60;;;;;;5046914;28;19948;-10
2022/09/19 12:14:26;;;;;;;;;;;20.70;86.70;;;;;;5047168;28;19944;-9
2022/09/19 12:17:02;;;;;;;;;;;20.60;87.30;;;;;;5043746;28;19915;-10
2022/09/19 12:19:39;;;;;;;;;;;20.50;88.00;;;;;;5027028;28;19916;-9
2022/09/19 12:22:13;;;;;;;;;;;20.50;88.70;;;;;;5048061;28;20267;-9
2022/09/19 12:24:54;;;;;;;;;;;20.40;89.30;;;;;;5029463;28;19919;-9
2022/09/19 12:27:43;;;;;;;;;;;20.40;89.30;;;;;;5027958;28;19916;-10
2022/09/19 12:30:19;;;;;;;;;;;20.40;89.40;;;;;;5016734;28;19917;-10
2022/09/19 12:32:51;;;;;;;;;;;20.40;89.90;;;;;;5046511;28;19973;-10
2022/09/19 12:35:30;;;;;;;;;;;20.40;90.00;;;;;;5029035;28;20244;-10
2022/09/19 12:38:02;;;;;;;;;;;20.30;90.10;;;;;;5028701;28;19920;-10
2022/09/19 12:40:46;;;;;;;;;;;20.30;90.20;;;;;;5046510;28;20395;-10
2022/09/19 12:43:32;;;;;;;;;;;20.30;90.40;;;;;;5027898;28;19909;-10
2022/09/19 12:46:08;;;;;;;;;;;20.20;90.50;;;;;;5044321;28;20077;-10
2022/09/19 12:48:49;;;;;;;;;;;20.20;90.70;;;;;;5026325;28;19908;-10
2022/09/19 12:51:21;;;;;;;;;;;20.10;90.80;;;;;;5043143;28;20063;-11
2022/09/19 12:54:01;;;;;;;;;;;20.20;91.00;;;;;;5044246;28;19920;-10
2022/09/19 12:56:32;;;;;;;;;;;20.10;91.10;;;;;;5046447;28;19920;-10
2022/09/19 12:59:04;;;;;;;;;;;20.10;91.30;;;;;;5045194;28;19909;-9
2022/09/19 13:01:56;;;;;;;;;;;20.10;91.30;;;;;;5045422;28;19994;-9
2022/09/19 13:04:39;;;;;;;;;;;20.10;91.40;;;;;;5038201;28;19988;-10
2022/09/19 13:07:11;;;;;;;;;;;20.10;91.40;;;;;;5045285;28;19944;-10
2022/09/19 13:10:00;;;;;;;;;;;20.10;91.50;;;;;;5046553;28;20234;-9
2022/09/19 13:12:48;;;;;;;;;;;20.10;91.40;;;;;;5046369;28;19909;-10
2022/09/19 13:15:19;;;;;;;;;;;20.10;91.50;;;;;;5015275;28;19920;-10
2022/09/19 13:23:38;;;;;;;;;;;20.10;91.70;;;;;;5046662;28;20289;-10
2022/09/19 13:26:33;;;;;;;;;;;20.10;91.80;;;;;;5045435;28;19904;-9
2022/09/19 13:28:59;;;;;;;;;;;20.10;91.70;;;;;;5028529;28;20212;-10
2022/09/19 13:31:30;;;;;;;;;;;20.10;91.80;;;;;;5046792;28;20274;-10
2022/09/19 13:33:57;;;;;;;;;;;20.10;91.90;;;;;;5028251;28;19909;-9
2022/09/19 13:36:29;;;;;;;;;;;20.00;91.90;;;;;;5028073;28;19967;-10
2022/09/19 13:38:58;;;;;;;;;;;20.00;92.00;;;;;;5027347;28;19975;-10
2022/09/19 13:41:41;;;;;;;;;;;20.00;92.10;;;;;;5030376;28;19917;-10
2022/09/19 13:44:18;;;;;;;;;;;20.00;92.20;;;;;;5048615;28;20241;-10
2022/09/19 13:46:44;;;;;;;;;;;20.00;92.20;;;;;;5046625;28;19948;-10
2022/09/19 13:49:33;;;;;;;;;;;20.00;92.20;;;;;;5031419;28;19947;-10
2022/09/19 13:52:09;;;;;;;;;;;20.00;92.20;;;;;;5036700;28;19975;-10
2022/09/19 13:54:44;;;;;;;;;;;20.10;92.20;;;;;;5029695;28;19909;-10
2022/09/19 13:57:11;;;;;;;;;;;20.10;92.10;;;;;;5049464;28;19909;-10
2022/09/19 13:59:38;;;;;;;;;;;20.10;92.10;;;;;;5049908;28;19913;-10
2022/09/19 14:02:13;;;;;;;;;;;20.10;92.10;;;;;;5030699;28;19979;-11
2022/09/19 14:04:58;;;;;;;;;;;20.10;92.00;;;;;;5030209;28;19909;-10
2022/09/19 14:07:43;;;;;;;;;;;20.10;91.90;;;;;;5048951;28;19909;-10
2022/09/19 14:10:14;;;;;;;;;;;20.10;92.00;;;;;;5031381;28;19909;-10
2022/09/19 14:12:45;;;;;;;;;;;20.10;92.10;;;;;;5031416;28;19909;-10
2022/09/19 14:15:16;;;;;;;;;;;20.10;92.20;;;;;;5046931;28;19947;-9
2022/09/19 14:18:03;;;;;;;;;;;20.10;92.20;;;;;;5027014;28;19913;-10
2022/09/19 14:20:47;;;;;;;;;;;20.10;92.20;;;;;;5046852;28;20013;-10
2022/09/19 14:23:15;;;;;;;;;;;20.10;92.00;;;;;;5027239;28;20280;-9
2022/09/19 14:25:56;;;;;;;;;;;20.20;92.10;;;;;;5045254;28;20010;-10
2022/09/19 14:28:24;;;;;;;;;;;20.20;92.10;;;;;;5046083;28;19909;-10
2022/09/19 14:30:50;;;;;;;;;;;20.10;92.10;;;;;;5047821;28;19916;-10
2022/09/19 14:33:15;;;;;;;;;;;20.10;92.10;;;;;;5049054;28;19909;-8
2022/09/19 14:35:50;;;;;;;;;;;20.10;92.20;;;;;;5047231;28;19916;-10
2022/09/19 14:38:34;;;;;;;;;;;20.10;92.20;;;;;;5032012;28;19909;-10
2022/09/19 14:41:08;;;;;;;;;;;20.10;92.10;;;;;;5049709;28;19924;-10
2022/09/19 14:43:57;;;;;;;;;;;20.10;92.20;;;;;;5032025;28;20103;-10
2022/09/19 14:46:43;;;;;;;;;;;20.10;92.20;;;;;;5052853;28;19923;-9
2022/09/19 14:49:18;;;;;;;;;;;20.10;92.30;;;;;;5075430;28;19919;-10
2022/09/19 14:51:59;;;;;;;;;;;20.10;92.30;;;;;;5074413;28;19908;-10
2022/09/19 14:54:51;;;;;;;;;;;20.10;92.40;;;;;;5073496;28;19935;-10
2022/09/19 14:57:19;;;;;;;;;;;20.10;92.50;;;;;;5062429;28;20387;-10
2022/09/19 14:59:45;;;;;;;;;;;20.10;92.60;;;;;;5068143;28;20111;-10
2022/09/19 15:02:35;;;;;;;;;;;20.10;92.60;;;;;;5068527;28;19970;-10
2022/09/19 15:05:03;;;;;;;;;;;20.10;92.50;;;;;;5066167;28;20396;-11